Time;durP1;ratioP1;P1;durP2;ratioP2;P2;SDS_P1;SDS_P2;PMS_P1;PMS_P2;Temp;Humidity;BMP_temperature;BMP_pressure;BME280_temperature;BME280_humidity;BME280_pressure;Samples;Min_cycle;Max_cycle;Signal;HPM_P1;HPM_P2
2021/09/08 00:02:20;;;;;;;2.80;2.60;;;12.40;84.20;;;;;;4950011;28;20310;-69
2021/09/08 00:04:46;;;;;;;3.45;3.15;;;12.40;84.10;;;;;;4952068;29;20024;-68
2021/09/08 00:07:11;;;;;;;2.50;2.30;;;12.40;83.90;;;;;;4953736;28;20054;-69
2021/09/08 00:09:37;;;;;;;2.78;2.45;;;12.40;83.60;;;;;;4952589;28;20027;-69
2021/09/08 00:12:04;;;;;;;3.05;2.47;;;12.40;83.60;;;;;;4947778;28;20725;-68
2021/09/08 00:14:30;;;;;;;2.45;2.25;;;12.20;83.70;;;;;;4946561;28;20031;-68
2021/09/08 00:16:55;;;;;;;5.22;3.78;;;12.20;83.70;;;;;;4950564;28;20377;-69
2021/09/08 00:19:21;;;;;;;2.30;2.15;;;12.20;83.50;;;;;;4966524;28;20048;-68
2021/09/08 00:21:47;;;;;;;4.05;3.65;;;12.20;83.30;;;;;;4951132;28;20114;-66
2021/09/08 00:24:13;;;;;;;10.90;7.30;;;12.10;83.00;;;;;;4952193;28;20401;-67
2021/09/08 00:26:38;;;;;;;10.18;6.40;;;12.10;83.60;;;;;;4952542;28;20054;-69
2021/09/08 00:29:04;;;;;;;7.15;4.88;;;12.10;83.60;;;;;;4951606;28;20019;-68
2021/09/08 00:31:30;;;;;;;2.60;2.35;;;12.10;83.50;;;;;;4951902;28;20039;-67
2021/09/08 00:33:55;;;;;;;2.10;1.90;;;12.00;83.00;;;;;;4954513;28;20030;-68
2021/09/08 00:36:21;;;;;;;2.35;2.15;;;11.80;83.30;;;;;;4969008;28;20484;-67
2021/09/08 00:38:47;;;;;;;5.00;2.85;;;11.70;84.40;;;;;;4953972;28;20496;-68
2021/09/08 00:41:12;;;;;;;2.60;2.40;;;11.70;85.10;;;;;;4954203;28;20042;-67
2021/09/08 00:43:38;;;;;;;5.30;4.18;;;11.70;85.70;;;;;;4953017;28;20035;-68
2021/09/08 00:46:04;;;;;;;7.65;4.93;;;11.70;86.40;;;;;;4951880;28;20102;-68
2021/09/08 00:48:29;;;;;;;10.82;7.20;;;11.80;87.10;;;;;;4955171;28;20038;-68
2021/09/08 00:50:56;;;;;;;10.02;6.88;;;11.80;87.90;;;;;;4969172;28;20043;-68
2021/09/08 00:53:22;;;;;;;11.40;7.15;;;11.90;88.50;;;;;;4950213;28;20027;-68
2021/09/08 00:55:49;;;;;;;8.52;5.63;;;12.00;88.20;;;;;;4953475;28;20035;-67
2021/09/08 00:58:15;;;;;;;7.68;4.97;;;12.00;86.10;;;;;;4954746;28;20019;-67
2021/09/08 01:00:42;;;;;;;4.80;3.40;;;11.90;85.30;;;;;;4951785;28;20027;-68
2021/09/08 01:03:08;;;;;;;4.70;3.63;;;11.90;83.70;;;;;;4953732;28;20511;-68
2021/09/08 01:05:34;;;;;;;5.55;4.07;;;11.80;82.40;;;;;;4951050;29;20066;-67
2021/09/08 01:08:00;;;;;;;7.03;4.50;;;11.70;82.60;;;;;;4951889;28;20064;-67
2021/09/08 01:10:29;;;;;;;6.53;4.88;;;11.70;82.80;;;;;;4948715;28;20491;-67
2021/09/08 01:12:56;;;;;;;6.18;4.97;;;11.70;83.00;;;;;;4951106;28;20480;-68
2021/09/08 01:15:21;;;;;;;10.27;5.32;;;11.70;83.50;;;;;;4952680;28;20039;-67
2021/09/08 01:17:47;;;;;;;8.90;5.95;;;11.60;85.20;;;;;;4948433;28;20550;-68
2021/09/08 01:20:15;;;;;;;7.68;5.75;;;11.60;85.30;;;;;;4952622;28;20109;-67
2021/09/08 01:22:53;;;;;;;6.63;4.63;;;11.60;84.90;;;;;;4965450;28;20051;-68
2021/09/08 01:25:22;;;;;;;4.72;3.20;;;11.50;83.40;;;;;;4949120;28;20027;-68
2021/09/08 01:27:49;;;;;;;7.38;3.78;;;11.40;83.00;;;;;;4947118;28;20024;-67
2021/09/08 01:30:16;;;;;;;5.88;4.38;;;11.40;83.30;;;;;;4951877;28;20457;-68
2021/09/08 01:32:42;;;;;;;4.60;4.10;;;11.40;83.80;;;;;;4951522;28;20050;-67
2021/09/08 01:35:09;;;;;;;4.93;3.45;;;11.40;85.40;;;;;;4954230;28;20760;-67
2021/09/08 01:37:34;;;;;;;6.45;4.07;;;11.40;84.30;;;;;;4955035;28;20396;-68
2021/09/08 01:40:00;;;;;;;5.25;3.35;;;11.30;84.30;;;;;;4946321;28;20034;-68
2021/09/08 01:42:26;;;;;;;3.88;2.50;;;11.20;83.80;;;;;;4950232;28;20039;-68
2021/09/08 01:44:51;;;;;;;2.28;2.17;;;11.10;83.90;;;;;;4951857;28;20094;-67
2021/09/08 01:47:17;;;;;;;2.50;2.30;;;11.10;83.80;;;;;;4950890;28;20411;-68
2021/09/08 01:49:42;;;;;;;3.47;2.67;;;11.00;84.00;;;;;;4952317;28;20035;-68
2021/09/08 01:52:08;;;;;;;4.88;3.50;;;11.10;84.70;;;;;;4950056;28;20055;-68
2021/09/08 01:54:34;;;;;;;5.43;4.10;;;11.10;85.70;;;;;;4950713;28;20035;-67
2021/09/08 01:57:00;;;;;;;5.43;4.30;;;11.10;85.60;;;;;;4948490;28;20032;-68
2021/09/08 01:59:25;;;;;;;5.03;3.88;;;11.20;84.80;;;;;;4959084;28;20038;-68
2021/09/08 02:01:51;;;;;;;5.55;4.82;;;11.20;84.70;;;;;;4944963;28;20039;-68
2021/09/08 02:04:16;;;;;;;7.40;5.28;;;11.20;85.60;;;;;;4952430;28;20023;-67
2021/09/08 02:06:49;;;;;;;9.30;5.93;;;11.30;84.70;;;;;;4949208;28;20030;-68
2021/09/08 02:09:16;;;;;;;6.38;4.38;;;11.20;84.10;;;;;;4949113;28;20452;-68
2021/09/08 02:11:42;;;;;;;6.15;3.90;;;11.10;83.60;;;;;;4946788;28;20062;-68
2021/09/08 02:14:08;;;;;;;4.82;4.10;;;11.00;84.60;;;;;;4949735;28;20023;-68
2021/09/08 02:16:34;;;;;;;6.78;4.10;;;11.00;84.60;;;;;;4953954;28;20042;-68
2021/09/08 02:19:00;;;;;;;4.85;4.07;;;11.00;84.60;;;;;;4964152;28;20042;-68
2021/09/08 02:21:25;;;;;;;4.00;3.42;;;11.00;85.10;;;;;;4974077;28;20089;-67
2021/09/08 02:23:51;;;;;;;1.85;1.75;;;11.00;86.00;;;;;;4952929;28;20066;-67
2021/09/08 02:26:17;;;;;;;1.95;1.80;;;10.90;84.80;;;;;;4948376;28;20027;-68
2021/09/08 02:28:43;;;;;;;1.80;1.70;;;10.80;84.20;;;;;;4949898;28;20030;-68
2021/09/08 02:31:09;;;;;;;2.40;2.20;;;10.80;84.10;;;;;;4952976;28;20068;-67
2021/09/08 02:33:35;;;;;;;2.30;2.10;;;10.80;84.00;;;;;;4945078;28;20030;-68
2021/09/08 02:36:03;;;;;;;2.33;2.13;;;10.80;84.20;;;;;;4952737;28;20027;-68
2021/09/08 02:38:30;;;;;;;2.78;2.35;;;10.80;84.50;;;;;;4946417;28;20460;-68
2021/09/08 02:41:00;;;;;;;3.50;2.60;;;10.70;84.50;;;;;;4949058;28;20747;-67
2021/09/08 02:43:29;;;;;;;4.78;3.15;;;10.80;85.10;;;;;;4957265;28;20043;-67
2021/09/08 02:45:54;;;;;;;3.25;2.88;;;10.70;85.30;;;;;;4948334;28;20027;-68
2021/09/08 02:48:20;;;;;;;3.25;2.85;;;10.70;85.30;;;;;;4949067;28;20035;-67
2021/09/08 02:50:46;;;;;;;4.25;2.90;;;10.70;85.20;;;;;;4950988;28;20031;-68
2021/09/08 02:53:11;;;;;;;3.25;2.58;;;10.70;85.30;;;;;;4948571;29;20039;-68
2021/09/08 02:55:37;;;;;;;2.75;2.55;;;10.70;85.50;;;;;;4947928;28;20498;-67
2021/09/08 02:58:03;;;;;;;3.03;2.80;;;10.70;85.80;;;;;;4952858;28;20035;-67
2021/09/08 03:00:28;;;;;;;7.55;4.50;;;10.70;85.70;;;;;;4947510;28;20073;-67
2021/09/08 03:02:54;;;;;;;15.35;9.65;;;10.70;85.30;;;;;;4947097;28;20078;-68
2021/09/08 03:05:20;;;;;;;22.60;11.65;;;10.70;85.40;;;;;;4943047;28;20036;-68
2021/09/08 03:07:45;;;;;;;22.42;12.10;;;10.70;86.30;;;;;;4956407;28;20032;-68
2021/09/08 03:10:11;;;;;;;19.30;11.00;;;10.70;85.80;;;;;;4946835;28;20035;-67
2021/09/08 03:12:37;;;;;;;20.48;10.30;;;10.70;85.40;;;;;;4952414;28;20388;-67
2021/09/08 03:15:04;;;;;;;19.42;9.68;;;10.70;85.40;;;;;;4948250;28;20035;-67
2021/09/08 03:17:30;;;;;;;15.43;7.45;;;10.60;85.40;;;;;;4950356;28;20047;-68
2021/09/08 03:19:56;;;;;;;15.48;7.70;;;10.60;85.50;;;;;;4949919;28;20451;-67
2021/09/08 03:22:21;;;;;;;13.07;8.35;;;10.70;85.80;;;;;;4951336;29;20081;-67
2021/09/08 03:24:47;;;;;;;13.73;7.35;;;10.60;86.80;;;;;;4949041;28;20023;-68
2021/09/08 03:27:13;;;;;;;11.18;6.93;;;10.60;86.10;;;;;;4946326;28;20037;-68
2021/09/08 03:29:39;;;;;;;9.90;5.60;;;10.60;85.50;;;;;;4956123;28;20026;-67
2021/09/08 03:32:05;;;;;;;13.40;6.65;;;10.60;85.20;;;;;;4947544;28;21581;-67
2021/09/08 03:34:31;;;;;;;11.18;6.85;;;10.50;85.40;;;;;;4947312;28;20039;-67
2021/09/08 03:36:56;;;;;;;11.07;7.95;;;10.50;84.90;;;;;;4948327;28;20822;-67
2021/09/08 03:39:22;;;;;;;12.15;6.82;;;10.50;84.80;;;;;;4948394;28;20035;-68
2021/09/08 03:41:48;;;;;;;13.55;6.03;;;10.50;84.80;;;;;;4950260;28;20039;-67
2021/09/08 03:44:13;;;;;;;10.75;6.88;;;10.40;84.60;;;;;;4951033;28;20024;-67
2021/09/08 03:46:39;;;;;;;11.68;5.63;;;10.50;84.90;;;;;;4949395;28;20027;-67
2021/09/08 03:49:04;;;;;;;9.52;6.18;;;10.50;85.30;;;;;;4949643;28;20212;-67
2021/09/08 03:51:30;;;;;;;10.43;6.60;;;10.50;85.40;;;;;;4947847;28;20039;-69
2021/09/08 03:53:58;;;;;;;10.32;6.05;;;10.50;85.00;;;;;;4945923;28;20078;-67
2021/09/08 03:56:25;;;;;;;8.95;4.90;;;10.40;85.10;;;;;;4956143;28;20047;-67
2021/09/08 03:58:51;;;;;;;9.65;5.70;;;10.40;84.90;;;;;;4952071;28;20114;-68
2021/09/08 04:01:17;;;;;;;3.90;2.75;;;10.40;84.50;;;;;;4941980;28;20560;-67
2021/09/08 04:03:42;;;;;;;7.35;5.22;;;10.30;84.30;;;;;;4952249;28;20023;-67
2021/09/08 04:06:08;;;;;;;11.57;6.30;;;10.30;84.80;;;;;;4952752;28;20498;-67
2021/09/08 04:08:33;;;;;;;9.13;5.95;;;10.30;85.50;;;;;;4948645;28;20023;-67
2021/09/08 04:10:59;;;;;;;11.63;6.72;;;10.40;85.00;;;;;;4954662;28;20054;-68
2021/09/08 04:13:25;;;;;;;10.43;6.32;;;10.30;84.60;;;;;;4954652;28;20063;-67
2021/09/08 04:15:50;;;;;;;11.88;6.32;;;10.20;84.50;;;;;;4955233;28;20395;-67
2021/09/08 04:18:16;;;;;;;8.52;5.20;;;10.10;85.20;;;;;;4954839;28;20039;-68
2021/09/08 04:20:43;;;;;;;6.13;3.90;;;10.00;86.10;;;;;;4955735;28;20035;-67
2021/09/08 04:23:08;;;;;;;11.48;4.10;;;9.90;87.40;;;;;;4951228;28;20039;-68
2021/09/08 04:25:34;;;;;;;5.95;3.75;;;9.80;88.00;;;;;;4953902;28;20035;-67
2021/09/08 04:27:59;;;;;;;4.07;3.47;;;9.90;88.00;;;;;;4959883;28;20163;-68
2021/09/08 04:30:25;;;;;;;11.43;6.78;;;9.90;88.10;;;;;;4952270;28;20106;-67
2021/09/08 04:32:50;;;;;;;5.97;4.65;;;9.90;89.70;;;;;;4952477;28;20035;-67
2021/09/08 04:35:16;;;;;;;7.47;4.80;;;10.00;87.90;;;;;;4955153;28;20046;-68
2021/09/08 04:37:42;;;;;;;6.13;4.45;;;10.00;86.60;;;;;;4955186;28;20031;-68
2021/09/08 04:40:08;;;;;;;9.93;4.50;;;10.00;86.10;;;;;;4955388;28;20425;-67
2021/09/08 04:42:34;;;;;;;9.35;5.93;;;10.00;86.50;;;;;;4950868;28;20472;-67
2021/09/08 04:44:59;;;;;;;22.27;11.20;;;10.00;86.80;;;;;;4955568;28;20194;-67
2021/09/08 04:47:25;;;;;;;24.40;13.63;;;10.00;87.10;;;;;;4956023;28;20034;-67
2021/09/08 04:49:51;;;;;;;23.27;13.27;;;10.10;86.80;;;;;;4965727;28;20396;-68
2021/09/08 04:52:17;;;;;;;21.55;10.60;;;10.00;87.80;;;;;;4953030;28;20031;-68
2021/09/08 04:54:42;;;;;;;19.30;10.40;;;10.00;88.50;;;;;;4954388;28;20365;-68
2021/09/08 04:57:08;;;;;;;23.95;12.50;;;10.00;87.70;;;;;;4955626;28;20441;-68
2021/09/08 04:59:34;;;;;;;27.80;15.00;;;10.00;87.80;;;;;;4956220;28;20035;-68
2021/09/08 05:02:00;;;;;;;20.58;11.40;;;10.00;87.40;;;;;;4952896;28;20035;-68
2021/09/08 05:04:25;;;;;;;19.90;10.13;;;10.00;88.80;;;;;;4960463;28;20039;-67
2021/09/08 05:06:51;;;;;;;16.08;8.35;;;10.00;89.10;;;;;;4951977;28;20031;-67
2021/09/08 05:09:17;;;;;;;15.05;9.45;;;10.00;90.00;;;;;;4946670;28;20027;-68
2021/09/08 05:11:42;;;;;;;10.25;6.25;;;10.10;88.40;;;;;;4953682;28;20113;-68
2021/09/08 05:14:09;;;;;;;15.00;6.65;;;10.00;87.10;;;;;;4959440;28;20030;-68
2021/09/08 05:16:35;;;;;;;7.28;4.97;;;10.00;87.10;;;;;;4955488;28;20055;-68
2021/09/08 05:19:00;;;;;;;6.82;4.07;;;10.00;86.90;;;;;;4956666;28;20031;-68
2021/09/08 05:21:26;;;;;;;6.72;5.22;;;9.90;85.80;;;;;;4964060;28;20031;-68
2021/09/08 05:23:52;;;;;;;6.60;4.97;;;9.80;86.30;;;;;;4952491;28;20043;-68
2021/09/08 05:26:17;;;;;;;4.55;3.63;;;9.70;86.80;;;;;;4954293;29;20522;-67
2021/09/08 05:28:43;;;;;;;7.18;4.45;;;9.80;87.30;;;;;;4959936;28;20022;-68
2021/09/08 05:31:09;;;;;;;4.97;4.28;;;9.80;87.30;;;;;;4950648;28;20035;-68
2021/09/08 05:33:35;;;;;;;6.32;4.50;;;9.80;87.70;;;;;;4953657;28;20054;-68
2021/09/08 05:36:00;;;;;;;5.95;4.95;;;9.90;88.30;;;;;;4954549;29;20034;-69
2021/09/08 05:38:26;;;;;;;6.78;5.57;;;9.80;87.90;;;;;;4949279;28;20173;-68
2021/09/08 05:40:52;;;;;;;6.97;4.93;;;9.80;87.80;;;;;;4945351;28;20054;-68
2021/09/08 05:43:17;;;;;;;9.57;5.88;;;9.90;88.00;;;;;;4948307;29;20038;-68
2021/09/08 05:45:43;;;;;;;7.53;5.40;;;10.00;88.20;;;;;;4959841;28;20039;-68
2021/09/08 05:48:10;;;;;;;6.97;5.32;;;10.00;88.60;;;;;;4965547;28;20027;-68
2021/09/08 05:50:36;;;;;;;8.57;5.80;;;10.00;89.20;;;;;;4960685;28;20076;-68
2021/09/08 05:53:03;;;;;;;12.05;6.93;;;10.00;90.00;;;;;;4954368;28;20476;-68
2021/09/08 05:55:30;;;;;;;9.38;6.63;;;10.00;90.80;;;;;;4954705;28;20038;-68
2021/09/08 05:57:55;;;;;;;12.98;7.15;;;10.10;91.30;;;;;;4954195;28;20031;-67
2021/09/08 06:00:21;;;;;;;14.20;8.95;;;10.20;91.70;;;;;;4946713;28;20093;-67
2021/09/08 06:02:47;;;;;;;14.45;8.73;;;10.30;92.20;;;;;;4962682;28;20039;-67
2021/09/08 06:05:13;;;;;;;14.73;10.02;;;10.40;93.00;;;;;;4953825;28;20050;-67
2021/09/08 06:07:38;;;;;;;16.75;10.13;;;10.50;93.80;;;;;;4953831;28;20046;-67
2021/09/08 06:10:05;;;;;;;15.98;9.48;;;10.60;94.20;;;;;;4952585;28;20114;-67
2021/09/08 06:12:31;;;;;;;13.85;9.18;;;10.70;94.30;;;;;;4952674;28;20039;-67
2021/09/08 06:14:57;;;;;;;17.75;10.90;;;10.80;94.00;;;;;;4951901;28;20126;-67
2021/09/08 06:17:22;;;;;;;19.92;10.82;;;10.90;94.00;;;;;;4954319;28;20039;-68
2021/09/08 06:19:48;;;;;;;17.15;10.88;;;11.10;94.40;;;;;;4954052;28;20030;-67
2021/09/08 06:22:14;;;;;;;19.55;11.27;;;11.30;95.10;;;;;;4950959;28;20043;-68
2021/09/08 06:24:39;;;;;;;20.35;11.55;;;11.40;95.10;;;;;;4953529;28;20773;-68
2021/09/08 06:27:05;;;;;;;19.88;11.65;;;11.50;95.10;;;;;;4951505;28;20035;-67
2021/09/08 06:29:31;;;;;;;19.70;12.50;;;11.60;95.20;;;;;;4966166;28;20035;-68
2021/09/08 06:31:56;;;;;;;17.60;11.40;;;11.80;95.50;;;;;;4947181;28;20043;-68
2021/09/08 06:34:22;;;;;;;20.17;11.70;;;11.90;95.30;;;;;;4941056;29;20062;-68
2021/09/08 06:36:49;;;;;;;22.50;12.90;;;12.00;95.40;;;;;;4962896;28;20035;-68
2021/09/08 06:39:15;;;;;;;21.53;13.23;;;12.10;95.40;;;;;;4957621;28;20077;-68
2021/09/08 06:41:41;;;;;;;22.50;12.90;;;12.20;95.50;;;;;;4954790;28;20074;-68
2021/09/08 06:44:07;;;;;;;26.25;13.73;;;12.40;95.40;;;;;;4953236;28;20477;-68
2021/09/08 06:46:33;;;;;;;21.65;13.18;;;12.40;95.60;;;;;;4950234;28;20055;-68
2021/09/08 06:48:58;;;;;;;25.35;13.95;;;12.60;95.10;;;;;;4967744;28;20027;-68
2021/09/08 06:51:24;;;;;;;25.67;15.20;;;12.70;95.30;;;;;;4943990;28;20078;-68
2021/09/08 06:53:50;;;;;;;22.92;13.50;;;12.90;95.50;;;;;;4953845;28;20035;-68
2021/09/08 06:56:15;;;;;;;29.92;15.60;;;13.00;95.60;;;;;;4964500;28;20023;-68
2021/09/08 06:58:41;;;;;;;27.05;14.93;;;13.20;95.80;;;;;;4968699;28;20053;-68
2021/09/08 07:01:07;;;;;;;27.58;15.07;;;13.30;95.70;;;;;;4950923;28;20451;-68
2021/09/08 07:03:33;;;;;;;28.77;16.08;;;13.50;95.60;;;;;;4965381;28;20500;-68
2021/09/08 07:05:58;;;;;;;24.45;13.93;;;13.60;95.80;;;;;;4954023;28;20028;-68
2021/09/08 07:08:24;;;;;;;26.30;15.15;;;13.70;95.40;;;;;;4980905;28;20398;-68
2021/09/08 07:10:50;;;;;;;24.73;14.05;;;13.80;95.40;;;;;;4960451;28;20090;-68
2021/09/08 07:13:15;;;;;;;26.55;14.90;;;13.90;94.90;;;;;;4961836;28;20051;-68
2021/09/08 07:15:41;;;;;;;29.75;13.73;;;14.10;94.90;;;;;;4953502;28;20086;-68
2021/09/08 07:18:07;;;;;;;22.10;12.95;;;14.10;94.00;;;;;;4951707;28;20050;-68
2021/09/08 07:20:32;;;;;;;20.98;11.90;;;14.20;93.80;;;;;;4952144;28;20572;-68
2021/09/08 07:22:58;;;;;;;28.05;14.40;;;14.30;93.30;;;;;;4952733;28;20114;-68
2021/09/08 07:25:24;;;;;;;24.17;13.25;;;14.50;93.20;;;;;;4952655;28;20034;-69
2021/09/08 07:27:49;;;;;;;20.38;11.95;;;14.50;93.20;;;;;;4953081;28;20115;-68
2021/09/08 07:30:15;;;;;;;25.08;13.10;;;14.60;92.20;;;;;;4953066;28;20031;-69
2021/09/08 07:32:41;;;;;;;21.08;13.88;;;14.70;92.70;;;;;;4952961;28;20046;-69
2021/09/08 07:35:07;;;;;;;28.48;13.93;;;14.80;91.80;;;;;;4953563;28;20031;-69
2021/09/08 07:37:33;;;;;;;21.15;12.57;;;14.90;92.30;;;;;;4959203;28;20465;-68
2021/09/08 07:39:58;;;;;;;26.20;13.45;;;15.00;91.90;;;;;;4959783;28;20095;-68
2021/09/08 07:42:24;;;;;;;25.80;13.88;;;15.10;91.50;;;;;;4959587;28;20031;-68
2021/09/08 07:44:50;;;;;;;24.25;13.95;;;15.30;92.20;;;;;;4975475;28;20035;-67
2021/09/08 07:47:15;;;;;;;20.85;12.20;;;15.40;91.20;;;;;;4956016;28;20045;-67
2021/09/08 07:49:41;;;;;;;24.05;13.75;;;15.50;90.70;;;;;;4956095;28;20532;-68
2021/09/08 07:52:07;;;;;;;22.27;12.88;;;15.50;92.00;;;;;;4961044;28;20519;-67
2021/09/08 07:54:32;;;;;;;23.55;13.35;;;15.70;91.20;;;;;;4958443;28;20031;-70
2021/09/08 07:56:58;;;;;;;23.23;12.65;;;15.80;91.40;;;;;;4963400;28;20109;-69
2021/09/08 07:59:24;;;;;;;20.92;11.50;;;15.90;90.00;;;;;;4969819;28;20480;-69
2021/09/08 08:01:49;;;;;;;20.90;12.48;;;16.00;89.20;;;;;;4959832;28;20043;-69
2021/09/08 08:04:15;;;;;;;22.83;11.98;;;16.10;90.00;;;;;;4962922;28;20034;-69
2021/09/08 08:06:41;;;;;;;23.00;13.10;;;16.20;88.30;;;;;;4971655;28;20126;-69
2021/09/08 08:09:07;;;;;;;21.15;12.40;;;16.20;88.40;;;;;;4958315;28;20428;-69
2021/09/08 08:11:33;;;;;;;19.73;12.02;;;16.30;87.80;;;;;;4956963;28;20032;-68
2021/09/08 08:13:59;;;;;;;24.00;12.70;;;16.30;89.90;;;;;;4962409;28;20050;-70
2021/09/08 08:16:25;;;;;;;23.77;12.55;;;16.50;88.80;;;;;;4957665;28;20108;-68
2021/09/08 08:18:51;;;;;;;24.10;12.77;;;16.50;87.10;;;;;;4960510;28;20102;-68
2021/09/08 08:21:16;;;;;;;20.58;11.55;;;16.60;86.50;;;;;;4969863;28;20050;-68
2021/09/08 08:23:42;;;;;;;21.23;11.43;;;16.60;86.80;;;;;;4965584;28;20105;-67
2021/09/08 08:26:08;;;;;;;20.88;12.15;;;16.80;87.30;;;;;;4960613;28;20027;-68
2021/09/08 08:28:33;;;;;;;18.67;11.02;;;16.90;86.10;;;;;;4966408;28;20507;-69
2021/09/08 08:31:00;;;;;;;20.23;11.15;;;17.00;86.30;;;;;;4963740;28;20622;-69
2021/09/08 08:33:28;;;;;;;18.80;11.85;;;17.10;85.70;;;;;;4957566;28;20039;-68
2021/09/08 08:35:55;;;;;;;20.17;12.02;;;17.30;84.50;;;;;;4953810;28;20384;-68
2021/09/08 08:38:21;;;;;;;21.67;12.82;;;17.30;84.00;;;;;;4961149;28;20031;-68
2021/09/08 08:40:47;;;;;;;22.17;11.95;;;17.40;85.40;;;;;;4958485;28;20098;-68
2021/09/08 08:43:13;;;;;;;18.58;10.90;;;17.50;86.00;;;;;;4958929;28;20047;-68
2021/09/08 08:45:39;;;;;;;18.85;10.52;;;17.60;84.20;;;;;;4952334;28;20453;-69
2021/09/08 08:48:06;;;;;;;18.88;11.68;;;17.70;84.00;;;;;;4942232;28;20027;-68
2021/09/08 08:50:32;;;;;;;20.88;11.45;;;17.70;81.50;;;;;;4953858;28;20035;-69
2021/09/08 08:52:58;;;;;;;15.52;9.73;;;17.70;80.90;;;;;;4955994;28;20428;-68
2021/09/08 08:55:25;;;;;;;19.05;11.20;;;17.70;80.40;;;;;;4954864;28;20051;-68
2021/09/08 08:57:50;;;;;;;19.40;10.50;;;17.90;81.30;;;;;;4955445;28;20030;-69
2021/09/08 09:00:18;;;;;;;15.88;9.90;;;18.00;83.60;;;;;;4952667;28;20118;-68
2021/09/08 09:02:49;;;;;;;13.75;9.65;;;18.20;80.70;;;;;;4954733;28;20043;-68
2021/09/08 09:05:32;;;;;;;17.27;10.70;;;18.20;80.90;;;;;;4951256;28;20106;-68
2021/09/08 09:07:58;;;;;;;17.60;10.10;;;18.20;83.30;;;;;;4951193;28;20028;-69
2021/09/08 09:10:24;;;;;;;15.50;9.45;;;18.40;81.20;;;;;;4946652;28;20050;-69
2021/09/08 09:12:50;;;;;;;19.80;10.52;;;18.40;79.40;;;;;;4954058;28;20564;-69
2021/09/08 09:15:19;;;;;;;15.10;9.57;;;18.50;78.30;;;;;;4948273;28;20038;-68
2021/09/08 09:17:45;;;;;;;17.98;10.15;;;18.60;82.60;;;;;;4955000;29;20035;-68
2021/09/08 09:20:14;;;;;;;16.05;9.15;;;18.70;78.80;;;;;;4954333;28;20035;-68
2021/09/08 09:23:06;;;;;;;13.82;9.48;;;18.60;77.40;;;;;;4953377;29;20091;-68
2021/09/08 09:25:37;;;;;;;16.27;9.35;;;18.60;75.30;;;;;;4951400;29;20067;-68
2021/09/08 09:28:05;;;;;;;15.35;9.68;;;18.70;77.10;;;;;;4951955;28;20082;-68
2021/09/08 09:30:34;;;;;;;17.05;9.70;;;18.80;77.30;;;;;;4968271;28;20106;-69
2021/09/08 09:33:01;;;;;;;18.48;9.95;;;18.90;76.40;;;;;;4952858;28;20440;-68
2021/09/08 09:35:31;;;;;;;19.17;10.45;;;19.00;77.30;;;;;;4950549;28;20055;-68
2021/09/08 09:38:02;;;;;;;15.75;9.63;;;19.10;76.70;;;;;;4955106;28;20035;-69
2021/09/08 09:40:32;;;;;;;14.50;8.88;;;19.00;78.30;;;;;;4955012;29;20488;-68
2021/09/08 09:43:08;;;;;;;16.48;9.57;;;19.20;76.40;;;;;;4954617;28;20037;-69
2021/09/08 09:45:35;;;;;;;15.35;9.20;;;19.20;74.70;;;;;;4959381;28;20031;-68
2021/09/08 09:48:01;;;;;;;18.42;9.18;;;19.30;74.10;;;;;;4949769;28;20067;-69
2021/09/08 09:50:27;;;;;;;13.05;8.82;;;19.20;73.60;;;;;;4954145;28;20023;-69
2021/09/08 09:52:53;;;;;;;15.80;9.20;;;19.30;75.70;;;;;;4951164;28;20057;-68
2021/09/08 09:55:21;;;;;;;14.75;8.82;;;19.50;76.30;;;;;;4954561;28;20030;-68
2021/09/08 09:57:46;;;;;;;15.35;9.13;;;19.60;76.90;;;;;;4953778;28;20066;-68
2021/09/08 10:00:16;;;;;;;16.33;9.20;;;19.70;75.40;;;;;;4953931;28;20058;-68
2021/09/08 10:02:43;;;;;;;14.15;8.18;;;19.80;74.90;;;;;;4951515;28;20078;-68
2021/09/08 10:05:10;;;;;;;14.85;8.38;;;19.70;71.60;;;;;;4954046;28;20570;-68
2021/09/08 10:07:36;;;;;;;14.43;9.07;;;19.80;74.00;;;;;;4952464;28;20483;-68
2021/09/08 10:10:27;;;;;;;14.60;8.48;;;19.90;71.50;;;;;;4954393;28;20093;-68
2021/09/08 10:13:05;;;;;;;14.65;7.93;;;20.00;73.50;;;;;;4954223;28;20035;-68
2021/09/08 10:15:31;;;;;;;14.80;8.15;;;20.00;73.00;;;;;;4952230;28;20039;-69
2021/09/08 10:18:11;;;;;;;13.32;8.80;;;20.10;72.00;;;;;;4953584;28;20052;-68
2021/09/08 10:20:42;;;;;;;10.90;7.20;;;20.20;71.00;;;;;;4952927;28;20184;-68
2021/09/08 10:23:10;;;;;;;11.77;7.65;;;20.20;70.20;;;;;;4967018;28;20413;-69
2021/09/08 10:25:37;;;;;;;13.55;8.20;;;20.20;68.90;;;;;;4955811;28;20688;-68
2021/09/08 10:28:05;;;;;;;11.18;7.85;;;20.20;70.70;;;;;;4967775;28;20138;-68
2021/09/08 10:30:32;;;;;;;11.90;8.13;;;20.30;70.80;;;;;;4952827;28;20031;-68
2021/09/08 10:33:01;;;;;;;12.63;7.78;;;20.40;72.70;;;;;;4968717;28;20126;-69
2021/09/08 10:35:26;;;;;;;11.98;7.82;;;20.40;69.50;;;;;;4950710;28;20042;-68
2021/09/08 10:37:54;;;;;;;11.50;7.30;;;20.50;70.20;;;;;;4955229;28;20409;-69
2021/09/08 10:40:23;;;;;;;12.60;7.50;;;20.60;71.30;;;;;;4953883;28;20035;-69
2021/09/08 10:42:57;;;;;;;14.40;7.60;;;20.60;71.90;;;;;;4951311;28;20519;-68
2021/09/08 10:45:31;;;;;;;14.32;7.88;;;20.80;69.40;;;;;;4950372;29;20061;-68
2021/09/08 10:47:59;;;;;;;11.98;7.78;;;20.80;69.40;;;;;;4953583;28;20114;-68
2021/09/08 10:50:51;;;;;;;11.38;7.63;;;20.80;71.70;;;;;;4954668;28;20070;-68
2021/09/08 10:53:19;;;;;;;11.75;7.22;;;20.80;67.60;;;;;;4950537;28;20043;-69
2021/09/08 10:55:47;;;;;;;10.75;6.93;;;20.90;70.10;;;;;;4948048;29;20050;-69
2021/09/08 10:58:13;;;;;;;10.70;7.03;;;21.00;69.30;;;;;;4952509;28;20031;-68
2021/09/08 11:00:40;;;;;;;14.07;7.88;;;20.90;66.60;;;;;;4951374;28;20035;-69
2021/09/08 11:03:15;;;;;;;12.32;7.90;;;21.00;66.00;;;;;;4948869;28;20413;-69
2021/09/08 11:05:55;;;;;;;12.43;7.53;;;20.90;67.80;;;;;;4952874;29;20066;-68
2021/09/08 11:08:29;;;;;;;14.50;8.27;;;21.00;71.00;;;;;;4949205;28;20059;-69
2021/09/08 11:11:09;;;;;;;14.68;8.05;;;21.00;66.50;;;;;;4940974;29;20077;-69
2021/09/08 11:13:35;;;;;;;11.50;7.70;;;21.00;67.70;;;;;;4953301;29;20031;-68
2021/09/08 11:16:01;;;;;;;13.65;7.72;;;21.00;67.90;;;;;;4952474;28;20055;-68
2021/09/08 11:18:35;;;;;;;11.45;7.45;;;21.10;68.50;;;;;;4953670;28;20066;-69
2021/09/08 11:21:03;;;;;;;12.60;7.18;;;21.20;67.50;;;;;;4960704;28;20043;-68
2021/09/08 11:23:29;;;;;;;12.75;7.95;;;21.30;68.50;;;;;;4950613;28;20146;-68
2021/09/08 11:26:03;;;;;;;13.55;8.55;;;21.30;67.40;;;;;;4950925;28;20028;-68
2021/09/08 11:28:31;;;;;;;14.95;9.88;;;21.50;70.00;;;;;;4945789;28;20027;-69
2021/09/08 11:30:57;;;;;;;12.77;7.68;;;21.50;66.90;;;;;;4952561;28;20096;-69
2021/09/08 11:33:22;;;;;;;12.10;8.05;;;21.50;68.80;;;;;;4950595;29;20053;-68
2021/09/08 11:35:53;;;;;;;11.48;8.15;;;21.50;67.60;;;;;;4949013;28;20114;-69
2021/09/08 11:38:28;;;;;;;12.43;7.75;;;21.50;68.00;;;;;;4952702;29;20388;-69
2021/09/08 11:40:56;;;;;;;13.77;8.63;;;21.50;68.40;;;;;;4951072;28;20027;-69
2021/09/08 11:43:35;;;;;;;;;;;21.60;69.10;;;;;;4961985;28;20034;-69
2021/09/08 11:46:17;;;;;;;14.05;7.80;;;21.70;69.60;;;;;;4949011;28;19914;-69
2021/09/08 11:48:44;;;;;;;11.68;8.07;;;21.60;68.40;;;;;;4953534;29;20098;-68
2021/09/08 11:51:12;;;;;;;11.43;7.72;;;21.60;68.80;;;;;;4950927;29;20030;-69
2021/09/08 11:53:38;;;;;;;11.75;7.53;;;21.70;66.70;;;;;;4951643;28;20046;-70
2021/09/08 11:56:11;;;;;;;13.05;8.50;;;21.70;65.90;;;;;;4951542;29;20039;-68
2021/09/08 11:58:41;;;;;;;9.77;6.88;;;21.70;68.80;;;;;;4951379;28;20027;-68
2021/09/08 12:01:09;;;;;;;12.95;8.27;;;21.80;70.00;;;;;;4945592;28;20114;-69
2021/09/08 12:04:05;;;;;;;12.77;8.10;;;21.90;70.30;;;;;;4949012;28;20034;-67
2021/09/08 12:06:33;;;;;;;11.95;7.18;;;21.90;69.40;;;;;;4942638;28;20036;-68
2021/09/08 12:09:01;;;;;;;;;;;21.90;68.60;;;;;;4953471;29;20077;-68
2021/09/08 12:11:30;;;;;;;;;;;21.80;67.60;;;;;;4964496;28;20378;-69
2021/09/08 12:13:55;;;;;;;10.38;7.30;;;22.00;69.30;;;;;;4952784;28;19907;-68
2021/09/08 12:16:37;;;;;;;9.82;6.82;;;21.90;65.50;;;;;;4952705;28;20046;-68
2021/09/08 12:19:13;;;;;;;12.52;7.00;;;22.00;66.90;;;;;;4950815;28;20485;-68
2021/09/08 12:21:40;;;;;;;9.50;6.45;;;22.00;70.60;;;;;;4952024;28;20034;-68
2021/09/08 12:24:29;;;;;;;10.93;6.97;;;22.00;66.10;;;;;;4955678;28;20392;-69
2021/09/08 12:26:56;;;;;;;9.80;6.97;;;22.00;65.00;;;;;;4951937;29;20050;-68
2021/09/08 12:29:23;;;;;;;8.43;6.63;;;22.00;65.00;;;;;;4955469;28;20031;-68
2021/09/08 12:32:00;;;;;;;10.85;7.03;;;22.00;69.40;;;;;;4956043;28;20165;-68
2021/09/08 12:34:43;;;;;;;10.35;7.40;;;22.20;68.30;;;;;;4953594;28;20186;-68
2021/09/08 12:37:09;;;;;;;9.85;6.72;;;22.20;66.50;;;;;;4952563;28;20090;-68
2021/09/08 12:39:52;;;;;;;10.82;7.47;;;22.20;66.00;;;;;;4955624;29;20023;-68